createdAt,value
2023-01-06T00:01:10.370Z,2.63
2023-01-06T00:03:37.639Z,1.92
2023-01-06T00:06:06.887Z,2.33
2023-01-06T00:08:36.549Z,2.78
2023-01-06T00:11:11.994Z,3.40
2023-01-06T00:13:39.704Z,2.60
2023-01-06T00:16:08.650Z,2.45
2023-01-06T00:18:35.701Z,2.20
2023-01-06T00:21:03.004Z,2.08
2023-01-06T00:23:29.905Z,2.20
2023-01-06T00:25:56.652Z,2.70
2023-01-06T00:28:23.474Z,2.70
2023-01-06T00:30:50.385Z,2.00
2023-01-06T00:33:17.362Z,3.47
2023-01-06T00:35:44.088Z,3.63
2023-01-06T00:38:11.135Z,2.75
2023-01-06T00:40:38.274Z,3.78
2023-01-06T00:43:05.775Z,3.17
2023-01-06T00:45:32.844Z,3.13
2023-01-06T00:47:59.594Z,3.42
2023-01-06T00:50:26.425Z,3.45
2023-01-06T00:52:53.920Z,3.45
2023-01-06T00:55:20.801Z,2.90
2023-01-06T00:57:49.945Z,3.25
2023-01-06T01:00:16.719Z,2.80
2023-01-06T01:02:43.622Z,3.50
2023-01-06T01:05:11.172Z,4.05
2023-01-06T01:07:38.250Z,3.63
2023-01-06T01:10:05.384Z,5.20
2023-01-06T01:12:32.138Z,3.95
2023-01-06T01:14:58.861Z,3.35
2023-01-06T01:17:31.581Z,3.15
2023-01-06T01:20:00.785Z,2.97
2023-01-06T01:22:30.442Z,3.35
2023-01-06T01:24:57.633Z,2.53
2023-01-06T01:27:24.398Z,2.65
2023-01-06T01:29:52.658Z,2.25
2023-01-06T01:32:19.721Z,2.37
2023-01-06T01:34:46.508Z,2.10
2023-01-06T01:37:15.935Z,2.90
2023-01-06T01:39:42.622Z,2.20
2023-01-06T01:42:20.592Z,2.42
2023-01-06T01:45:16.730Z,2.43
2023-01-06T01:47:51.155Z,2.15
2023-01-06T01:50:37.697Z,2.40
2023-01-06T01:53:15.688Z,2.00
2023-01-06T01:55:43.049Z,2.30
2023-01-06T01:58:17.681Z,2.00
2023-01-06T02:00:45.079Z,2.40
2023-01-06T02:03:14.144Z,2.28
2023-01-06T02:05:46.018Z,2.50
2023-01-06T02:08:36.499Z,1.90
2023-01-06T02:11:05.303Z,2.27
2023-01-06T02:13:37.355Z,2.17
2023-01-06T02:16:29.233Z,2.20
2023-01-06T02:19:27.093Z,2.17
2023-01-06T02:22:20.868Z,2.00
2023-01-06T02:25:04.902Z,2.00
2023-01-06T02:27:41.494Z,2.30
2023-01-06T02:30:27.524Z,2.28
2023-01-06T02:33:00.870Z,1.85
2023-01-06T02:35:40.759Z,2.30
2023-01-06T02:38:36.645Z,1.73
2023-01-06T02:41:07.763Z,1.80
2023-01-06T02:43:52.231Z,2.50
2023-01-06T02:46:28.451Z,2.60
2023-01-06T02:49:19.633Z,1.88
2023-01-06T02:52:01.470Z,2.10
2023-01-06T02:54:47.274Z,2.10
2023-01-06T02:57:26.137Z,2.63
2023-01-06T03:00:01.470Z,2.60
2023-01-06T03:02:31.972Z,2.22
2023-01-06T03:05:00.323Z,2.30
2023-01-06T03:07:28.598Z,3.00
2023-01-06T03:09:57.307Z,2.47
2023-01-06T03:12:31.976Z,2.47
2023-01-06T03:14:59.290Z,3.95
2023-01-06T03:17:26.796Z,2.73
2023-01-06T03:19:53.738Z,2.92
2023-01-06T03:22:21.987Z,2.90
2023-01-06T03:24:49.042Z,2.85
2023-01-06T03:27:21.664Z,2.90
2023-01-06T03:29:48.675Z,2.63
2023-01-06T03:32:44.940Z,2.10
2023-01-06T03:35:37.041Z,2.55
2023-01-06T03:38:22.523Z,2.30
2023-01-06T03:41:05.319Z,2.38
2023-01-06T03:43:37.800Z,2.30
2023-01-06T03:46:30.859Z,1.90
2023-01-06T03:49:05.447Z,2.65
2023-01-06T03:51:40.817Z,1.70
2023-01-06T03:54:20.380Z,2.25
2023-01-06T03:57:01.942Z,1.80
2023-01-06T03:59:32.713Z,2.20
2023-01-06T04:02:00.478Z,2.15
2023-01-06T04:04:27.394Z,2.08
2023-01-06T04:06:54.487Z,2.20
2023-01-06T04:09:21.170Z,2.00
2023-01-06T04:12:06.514Z,1.98
2023-01-06T04:14:36.163Z,2.08
2023-01-06T04:17:03.136Z,1.70
2023-01-06T04:19:30.085Z,2.05
2023-01-06T04:21:57.457Z,1.83
2023-01-06T04:24:28.416Z,1.88
2023-01-06T04:26:56.058Z,2.05
2023-01-06T04:29:22.780Z,1.90
2023-01-06T04:31:49.944Z,2.05
2023-01-06T04:34:16.939Z,1.50
2023-01-06T04:36:44.809Z,1.52
2023-01-06T04:39:11.620Z,1.80
2023-01-06T04:41:38.341Z,1.50
2023-01-06T04:44:05.188Z,1.48
2023-01-06T04:46:31.864Z,1.80
2023-01-06T04:48:58.535Z,1.77
2023-01-06T04:51:25.271Z,2.10
2023-01-06T04:53:52.010Z,1.60
2023-01-06T04:56:18.904Z,2.05
2023-01-06T04:58:45.680Z,1.77
2023-01-06T05:01:13.246Z,1.70
2023-01-06T05:03:41.219Z,1.67
2023-01-06T05:06:10.450Z,1.65
2023-01-06T05:08:41.691Z,1.77
2023-01-06T05:11:17.639Z,1.43
2023-01-06T05:13:44.539Z,1.40
2023-01-06T05:16:26.820Z,2.03
2023-01-06T05:18:54.798Z,1.83
2023-01-06T05:21:24.674Z,1.92
2023-01-06T05:23:52.413Z,1.60
2023-01-06T05:26:25.250Z,1.60
2023-01-06T05:28:52.298Z,1.73
2023-01-06T05:31:19.056Z,1.70
2023-01-06T05:33:45.848Z,1.83
2023-01-06T05:36:15.836Z,1.60
2023-01-06T05:38:43.263Z,2.20
2023-01-06T05:41:10.116Z,1.70
2023-01-06T05:43:37.822Z,1.70
2023-01-06T05:46:10.113Z,1.92
2023-01-06T05:48:38.235Z,2.23
2023-01-06T05:51:09.187Z,1.75
2023-01-06T05:53:39.228Z,2.20
2023-01-06T05:56:07.819Z,1.77
2023-01-06T05:58:35.457Z,2.05
2023-01-06T06:01:03.618Z,1.80
2023-01-06T06:03:31.800Z,1.65
2023-01-06T06:06:06.630Z,1.52
2023-01-06T06:08:33.481Z,1.77
2023-01-06T06:11:07.864Z,1.77
2023-01-06T06:13:34.903Z,1.60
2023-01-06T06:16:07.424Z,1.95
2023-01-06T06:18:36.381Z,1.95
2023-01-06T06:21:04.304Z,1.70
2023-01-06T06:23:31.739Z,1.58
2023-01-06T06:25:58.429Z,2.10
2023-01-06T06:28:25.246Z,1.55
2023-01-06T06:30:52.855Z,1.98
2023-01-06T06:33:20.973Z,2.17
2023-01-06T06:35:57.428Z,1.70
2023-01-06T06:38:24.198Z,1.67
2023-01-06T06:40:51.174Z,1.38
2023-01-06T06:43:18.143Z,2.05
2023-01-06T06:45:45.957Z,1.70
2023-01-06T06:48:13.314Z,2.00
2023-01-06T06:50:40.358Z,1.60
2023-01-06T06:53:07.663Z,1.92
2023-01-06T06:55:34.704Z,1.90
2023-01-06T06:58:01.597Z,1.90
2023-01-06T07:00:28.479Z,1.83
2023-01-06T07:02:55.285Z,1.87
2023-01-06T07:05:22.558Z,2.25
2023-01-06T07:07:49.303Z,2.53
2023-01-06T07:10:16.686Z,2.28
2023-01-06T07:12:43.445Z,2.10
2023-01-06T07:15:10.629Z,2.03
2023-01-06T07:17:37.527Z,2.40
2023-01-06T07:20:04.676Z,2.33
2023-01-06T07:22:31.379Z,2.17
2023-01-06T07:24:58.069Z,2.50
2023-01-06T07:27:24.806Z,2.23
2023-01-06T07:29:51.564Z,1.63
2023-01-06T07:32:18.426Z,2.20
2023-01-06T07:34:45.184Z,2.00
2023-01-06T07:37:11.939Z,1.98
2023-01-06T07:39:38.673Z,1.80
2023-01-06T07:42:08.559Z,1.50
2023-01-06T07:44:35.436Z,1.58
2023-01-06T07:47:02.438Z,1.58
2023-01-06T07:49:29.298Z,2.20
2023-01-06T07:51:56.397Z,1.87
2023-01-06T07:54:23.245Z,1.63
2023-01-06T07:56:49.986Z,2.13
2023-01-06T07:59:16.778Z,2.15
2023-01-06T08:01:43.693Z,2.30
2023-01-06T08:04:10.494Z,2.33
2023-01-06T08:06:40.627Z,2.25
2023-01-06T08:09:08.162Z,2.40
2023-01-06T08:11:34.948Z,2.20
2023-01-06T08:14:01.689Z,2.63
2023-01-06T08:16:28.503Z,2.57
2023-01-06T08:18:55.216Z,2.20
2023-01-06T08:21:22.038Z,2.55
2023-01-06T08:23:48.736Z,2.30
2023-01-06T08:26:17.618Z,2.55
2023-01-06T08:28:45.923Z,2.40
2023-01-06T08:31:15.785Z,2.42
2023-01-06T08:33:42.790Z,2.55
2023-01-06T08:36:13.038Z,2.35
2023-01-06T08:38:39.778Z,3.50
2023-01-06T08:41:07.156Z,2.37
2023-01-06T08:43:34.132Z,2.33
2023-01-06T08:46:03.657Z,2.85
2023-01-06T08:48:31.199Z,2.15
2023-01-06T08:51:07.150Z,2.42
2023-01-06T08:53:34.344Z,2.50
2023-01-06T08:56:01.312Z,2.22
2023-01-06T08:58:28.034Z,2.20
2023-01-06T09:00:54.936Z,2.60
2023-01-06T09:03:21.940Z,2.05
2023-01-06T09:05:56.115Z,2.00
2023-01-06T09:08:23.687Z,2.05
2023-01-06T09:10:51.068Z,2.15
2023-01-06T09:13:18.851Z,1.77
2023-01-06T09:15:48.847Z,2.22
2023-01-06T09:18:15.999Z,2.03
2023-01-06T09:20:42.769Z,1.52
2023-01-06T09:23:09.536Z,1.88
2023-01-06T09:25:36.298Z,1.50
2023-01-06T09:28:03.172Z,2.13
2023-01-06T09:30:30.126Z,2.17
2023-01-06T09:32:56.872Z,1.83
2023-01-06T09:35:23.745Z,2.38
2023-01-06T09:37:50.587Z,1.73
2023-01-06T09:40:20.819Z,1.60
2023-01-06T09:43:10.020Z,1.60
2023-01-06T09:45:42.025Z,1.77
2023-01-06T09:48:16.569Z,1.40
2023-01-06T09:50:58.178Z,1.50
2023-01-06T09:53:37.696Z,2.22
2023-01-06T09:56:09.114Z,1.60
2023-01-06T09:59:18.420Z,1.50
2023-01-06T10:01:49.490Z,1.92
2023-01-06T10:04:22.428Z,1.70
2023-01-06T10:07:04.425Z,1.70
2023-01-06T10:09:39.214Z,1.37
2023-01-06T10:12:37.794Z,1.50
2023-01-06T10:15:20.369Z,1.80
2023-01-06T10:18:18.242Z,1.65
2023-01-06T10:21:21.877Z,1.83
2023-01-06T10:23:58.010Z,2.37
2023-01-06T10:26:36.951Z,2.63
2023-01-06T10:29:12.447Z,3.03
2023-01-06T10:31:41.175Z,2.78
2023-01-06T10:34:33.350Z,1.90
2023-01-06T10:37:14.931Z,2.00
2023-01-06T10:39:44.264Z,1.63
2023-01-06T10:42:45.838Z,1.73
2023-01-06T10:45:13.396Z,1.98
2023-01-06T10:47:42.645Z,2.00
2023-01-06T10:50:18.027Z,2.27
2023-01-06T10:52:46.623Z,2.25
2023-01-06T10:55:26.802Z,1.33
2023-01-06T10:57:57.460Z,1.48
2023-01-06T11:00:25.054Z,1.40
2023-01-06T11:02:57.813Z,1.57
2023-01-06T11:05:34.680Z,1.50
2023-01-06T11:08:01.495Z,1.50
2023-01-06T11:10:57.276Z,1.30
2023-01-06T11:13:34.618Z,1.70
2023-01-06T11:16:33.877Z,1.70
2023-01-06T11:19:04.030Z,1.10
2023-01-06T11:21:57.510Z,1.67
2023-01-06T11:24:26.432Z,1.42
2023-01-06T11:27:21.361Z,4.72
2023-01-06T11:29:48.282Z,3.77
2023-01-06T11:32:27.425Z,2.85
2023-01-06T11:34:58.107Z,3.42
2023-01-06T11:37:42.417Z,2.47
2023-01-06T11:40:30.026Z,2.17
2023-01-06T11:43:28.204Z,2.10
2023-01-06T11:46:08.578Z,2.15
2023-01-06T11:48:47.561Z,3.72
2023-01-06T11:51:14.954Z,2.83
2023-01-06T11:53:56.445Z,1.88
2023-01-06T11:56:23.740Z,1.50
2023-01-06T11:59:09.586Z,2.22
2023-01-06T12:01:52.732Z,1.83
2023-01-06T12:04:50.269Z,1.42
2023-01-06T12:07:26.741Z,1.35
2023-01-06T12:09:58.056Z,1.63
2023-01-06T12:12:28.115Z,1.40
2023-01-06T12:14:55.843Z,1.55
2023-01-06T12:17:40.511Z,1.20
2023-01-06T12:20:27.034Z,1.73
2023-01-06T12:22:56.701Z,1.30
2023-01-06T12:25:26.014Z,1.10
2023-01-06T12:27:58.210Z,1.48
2023-01-06T12:30:45.945Z,1.17
2023-01-06T12:33:35.222Z,1.40
2023-01-06T12:36:21.950Z,1.57
2023-01-06T12:38:58.583Z,1.30
2023-01-06T12:41:37.847Z,1.58
2023-01-06T12:44:25.748Z,1.40
2023-01-06T12:47:05.272Z,2.42
2023-01-06T12:49:36.253Z,1.70
2023-01-06T12:52:09.316Z,1.05
2023-01-06T12:54:37.470Z,1.30
2023-01-06T12:57:12.156Z,1.10
2023-01-06T12:59:46.813Z,1.48
2023-01-06T13:02:26.518Z,1.57
2023-01-06T13:05:19.291Z,1.42
2023-01-06T13:08:06.280Z,1.00
2023-01-06T13:10:51.260Z,1.10
2023-01-06T13:13:26.933Z,1.05
2023-01-06T13:15:54.614Z,1.20
2023-01-06T13:18:38.586Z,1.02
2023-01-06T13:21:12.306Z,1.13
2023-01-06T13:24:03.853Z,1.27
2023-01-06T13:26:31.081Z,1.23
2023-01-06T13:29:09.880Z,1.00
2023-01-06T13:31:41.039Z,1.08
2023-01-06T13:34:35.746Z,0.90
2023-01-06T13:37:20.816Z,1.20
2023-01-06T13:39:53.844Z,1.30
2023-01-06T13:42:38.061Z,1.13
2023-01-06T13:45:07.888Z,1.20
2023-01-06T13:47:35.997Z,0.98
2023-01-06T13:50:04.799Z,1.40
2023-01-06T13:52:32.060Z,1.33
2023-01-06T13:55:05.413Z,1.30
2023-01-06T13:57:38.759Z,1.30
2023-01-06T14:00:05.466Z,1.27
2023-01-06T14:02:42.743Z,1.40
2023-01-06T14:05:21.972Z,2.20
2023-01-06T14:07:53.537Z,1.70
2023-01-06T14:10:42.508Z,1.15
2023-01-06T14:13:32.300Z,1.45
2023-01-06T14:16:13.936Z,1.50
2023-01-06T14:19:06.451Z,1.10
2023-01-06T14:21:33.814Z,0.97
2023-01-06T14:24:06.474Z,1.10
2023-01-06T14:26:49.973Z,1.13
2023-01-06T14:29:41.672Z,1.50
2023-01-06T14:32:37.284Z,1.45
2023-01-06T14:35:10.863Z,0.97
2023-01-06T14:37:51.227Z,1.70
2023-01-06T14:40:24.423Z,2.22
2023-01-06T14:42:52.256Z,1.20
2023-01-06T14:45:26.608Z,2.08
2023-01-06T14:48:08.768Z,1.03
2023-01-06T14:50:47.275Z,1.13
2023-01-06T14:53:38.791Z,1.70
2023-01-06T14:56:07.182Z,1.48
2023-01-06T14:58:37.538Z,1.60
2023-01-06T15:01:06.594Z,1.07
2023-01-06T15:03:34.694Z,1.20
2023-01-06T15:06:22.844Z,1.25
2023-01-06T15:08:49.882Z,1.27
2023-01-06T15:11:31.491Z,1.52
2023-01-06T15:13:58.205Z,1.83
2023-01-06T15:16:39.350Z,2.20
2023-01-06T15:19:09.050Z,2.30
2023-01-06T15:21:40.419Z,1.90
2023-01-06T15:24:20.676Z,1.90
2023-01-06T15:26:48.466Z,1.60
2023-01-06T15:29:17.994Z,1.52
2023-01-06T15:31:47.099Z,1.27
2023-01-06T15:34:32.467Z,1.70
2023-01-06T15:37:00.658Z,4.57
2023-01-06T15:39:30.568Z,5.47
2023-01-06T15:41:58.368Z,1.90
2023-01-06T15:44:28.204Z,2.20
2023-01-06T15:47:12.807Z,1.85
2023-01-06T15:49:49.297Z,2.28
2023-01-06T15:52:25.382Z,2.73
2023-01-06T15:54:54.507Z,2.35
2023-01-06T15:57:22.065Z,2.60
2023-01-06T16:00:02.845Z,2.08
2023-01-06T16:02:33.269Z,2.70
2023-01-06T16:05:00.821Z,1.70
2023-01-06T16:07:35.561Z,2.00
2023-01-06T16:10:02.562Z,2.10
2023-01-06T16:12:29.583Z,1.95
2023-01-06T16:14:56.441Z,1.90
2023-01-06T16:17:32.717Z,2.00
2023-01-06T16:20:06.602Z,2.30
2023-01-06T16:22:49.208Z,2.13
2023-01-06T16:25:41.884Z,2.28
2023-01-06T16:28:19.834Z,2.38
2023-01-06T16:31:12.096Z,2.93
2023-01-06T16:33:45.907Z,2.63
2023-01-06T16:36:15.520Z,3.90
2023-01-06T16:38:42.430Z,3.90
2023-01-06T16:41:19.563Z,3.78
2023-01-06T16:43:46.955Z,2.90
2023-01-06T16:46:24.911Z,3.47
2023-01-06T16:48:53.874Z,3.38
2023-01-06T16:51:21.108Z,4.00
2023-01-06T16:53:48.584Z,3.45
2023-01-06T16:56:23.209Z,3.37
2023-01-06T16:58:51.293Z,3.75
2023-01-06T17:01:21.027Z,4.70
2023-01-06T17:03:55.013Z,3.65
2023-01-06T17:06:23.649Z,3.90
2023-01-06T17:08:54.419Z,3.77
2023-01-06T17:11:24.305Z,4.28
2023-01-06T17:14:03.495Z,3.60
2023-01-06T17:16:34.678Z,4.53
2023-01-06T17:19:26.495Z,4.13
2023-01-06T17:22:04.251Z,4.00
2023-01-06T17:24:31.245Z,4.07
2023-01-06T17:27:26.421Z,3.50
2023-01-06T17:29:54.418Z,3.15
2023-01-06T17:32:34.964Z,3.10
2023-01-06T17:35:02.997Z,3.43
2023-01-06T17:37:30.582Z,3.20
2023-01-06T17:39:58.048Z,3.72
2023-01-06T17:42:32.401Z,3.60
2023-01-06T17:45:00.313Z,3.60
2023-01-06T17:47:29.702Z,3.73
2023-01-06T17:49:59.111Z,3.30
2023-01-06T17:52:37.939Z,3.90
2023-01-06T17:55:43.820Z,3.80
2023-01-06T17:58:19.224Z,4.20
2023-01-06T18:00:46.640Z,4.33
2023-01-06T18:03:27.989Z,4.65
2023-01-06T18:06:00.849Z,5.75
2023-01-06T18:08:30.626Z,5.50
2023-01-06T18:11:21.334Z,6.22
2023-01-06T18:13:50.924Z,11.80
2023-01-06T18:16:28.672Z,8.77
2023-01-06T18:19:22.475Z,8.43
2023-01-06T18:21:49.823Z,7.80
2023-01-06T18:24:35.963Z,8.02
2023-01-06T18:27:12.586Z,6.47
2023-01-06T18:29:42.040Z,6.78
2023-01-06T18:32:36.101Z,5.35
2023-01-06T18:35:10.619Z,4.80
2023-01-06T18:37:37.627Z,4.63
2023-01-06T18:40:07.785Z,5.57
2023-01-06T18:42:36.928Z,4.85
2023-01-06T18:45:22.520Z,5.60
2023-01-06T18:47:53.798Z,5.40
2023-01-06T18:50:34.364Z,5.05
2023-01-06T18:53:13.311Z,4.97
2023-01-06T18:56:03.552Z,3.60
2023-01-06T18:58:33.321Z,4.00
2023-01-06T19:01:08.258Z,3.97
2023-01-06T19:03:48.741Z,4.68
2023-01-06T19:06:18.396Z,4.90
2023-01-06T19:08:48.819Z,4.72
2023-01-06T19:11:21.170Z,4.63
2023-01-06T19:13:49.290Z,6.47
2023-01-06T19:16:30.711Z,6.38
2023-01-06T19:19:09.418Z,6.70
2023-01-06T19:21:37.943Z,7.60
2023-01-06T19:24:26.643Z,7.43
2023-01-06T19:26:55.996Z,9.00
2023-01-06T19:29:33.937Z,8.43
2023-01-06T19:32:13.069Z,8.10
2023-01-06T19:34:39.873Z,8.18
2023-01-06T19:37:16.737Z,11.15
2023-01-06T19:39:50.354Z,12.25
2023-01-06T19:42:30.094Z,11.90
2023-01-06T19:45:08.792Z,9.67
2023-01-06T19:47:40.929Z,9.07
2023-01-06T19:50:18.731Z,10.18
2023-01-06T19:52:45.699Z,9.07
2023-01-06T19:55:18.812Z,9.30
2023-01-06T19:58:17.914Z,11.17
2023-01-06T20:00:48.752Z,9.95
2023-01-06T20:03:35.388Z,9.27
2023-01-06T20:06:02.582Z,10.85
2023-01-06T20:08:29.456Z,9.15
2023-01-06T20:10:56.224Z,10.30
2023-01-06T20:13:23.000Z,9.75
2023-01-06T20:15:49.821Z,9.20
2023-01-06T20:18:16.564Z,9.13
2023-01-06T20:20:43.456Z,9.32
2023-01-06T20:23:11.246Z,8.57
2023-01-06T20:25:37.990Z,9.35
2023-01-06T20:28:04.916Z,8.95
2023-01-06T20:30:31.648Z,8.65
2023-01-06T20:32:58.444Z,9.20
2023-01-06T20:35:25.302Z,8.40
2023-01-06T20:37:52.074Z,8.60
2023-01-06T20:40:18.990Z,7.90
2023-01-06T20:42:46.194Z,7.50
2023-01-06T20:45:13.184Z,8.18
2023-01-06T20:47:40.368Z,7.30
2023-01-06T20:50:07.541Z,6.70
2023-01-06T20:52:34.905Z,8.23
2023-01-06T20:55:01.784Z,8.68
2023-01-06T20:57:28.538Z,9.23
2023-01-06T20:59:55.304Z,7.03
2023-01-06T21:02:22.312Z,7.15
2023-01-06T21:04:49.084Z,7.70
2023-01-06T21:07:15.774Z,7.93
2023-01-06T21:09:42.484Z,7.20
2023-01-06T21:12:09.286Z,7.83
2023-01-06T21:14:36.020Z,7.47
2023-01-06T21:17:03.887Z,7.60
2023-01-06T21:19:30.753Z,7.32
2023-01-06T21:21:57.499Z,7.72
2023-01-06T21:24:25.299Z,7.47
2023-01-06T21:26:52.232Z,7.07
2023-01-06T21:29:19.040Z,8.07
2023-01-06T21:31:45.770Z,7.53
2023-01-06T21:34:12.480Z,8.30
2023-01-06T21:36:39.307Z,7.90
2023-01-06T21:39:12.377Z,7.75
2023-01-06T21:41:57.746Z,8.68
2023-01-06T21:44:24.458Z,8.30
2023-01-06T21:46:51.197Z,8.48
2023-01-06T21:49:18.117Z,8.03
2023-01-06T21:51:47.251Z,7.90
2023-01-06T21:54:14.010Z,8.23
2023-01-06T21:56:40.790Z,8.18
2023-01-06T21:59:07.525Z,10.00
2023-01-06T22:01:34.360Z,9.50
2023-01-06T22:04:01.309Z,8.45
2023-01-06T22:06:29.860Z,9.65
2023-01-06T22:09:00.820Z,9.82
2023-01-06T22:11:28.939Z,9.60
2023-01-06T22:13:55.896Z,9.80
2023-01-06T22:16:23.234Z,9.40
2023-01-06T22:18:50.130Z,11.27
2023-01-06T22:21:16.983Z,9.95
2023-01-06T22:23:43.859Z,10.50
2023-01-06T22:26:10.719Z,9.53
2023-01-06T22:28:37.438Z,9.35
2023-01-06T22:31:04.821Z,10.80
2023-01-06T22:33:31.837Z,11.07
2023-01-06T22:35:59.126Z,9.95
2023-01-06T22:38:26.054Z,11.03
2023-01-06T22:40:52.767Z,8.98
2023-01-06T22:43:19.509Z,9.70
2023-01-06T22:45:53.486Z,10.80
2023-01-06T22:48:20.515Z,10.52
2023-01-06T22:50:47.368Z,9.07
2023-01-06T22:53:14.831Z,9.43
2023-01-06T22:55:41.611Z,10.35
2023-01-06T22:58:08.334Z,8.75
2023-01-06T23:00:35.060Z,10.35
2023-01-06T23:03:01.884Z,9.60
2023-01-06T23:05:28.927Z,9.00
2023-01-06T23:07:55.686Z,8.93
2023-01-06T23:10:22.662Z,8.55
2023-01-06T23:12:49.552Z,9.75
2023-01-06T23:15:16.292Z,8.40
2023-01-06T23:17:43.053Z,8.55
2023-01-06T23:20:10.422Z,8.43
2023-01-06T23:22:37.281Z,8.82
2023-01-06T23:25:04.314Z,8.63
2023-01-06T23:27:31.516Z,7.93
2023-01-06T23:29:58.479Z,7.82
2023-01-06T23:32:25.263Z,8.90
2023-01-06T23:34:52.030Z,7.55
2023-01-06T23:37:18.735Z,8.30
2023-01-06T23:39:45.429Z,7.67
2023-01-06T23:42:12.102Z,8.27
2023-01-06T23:44:38.846Z,9.05
2023-01-06T23:47:08.109Z,7.68
2023-01-06T23:49:34.980Z,7.88
2023-01-06T23:52:01.785Z,8.50
2023-01-06T23:54:28.515Z,7.40
2023-01-06T23:56:55.396Z,7.80
2023-01-06T23:59:22.243Z,7.32
